Time;durP1;ratioP1;P1;durP2;ratioP2;P2;SDS_P1;SDS_P2;PMS_P1;PMS_P2;Temp;Humidity;BMP_temperature;BMP_pressure;BME280_temperature;BME280_humidity;BME280_pressure;Samples;Min_cycle;Max_cycle;Signal;HPM_P1;HPM_P2
2022/03/18 00:00:00;;;;;;;26.38;13.10;;;;;;;4.52;75.23;102043.19;4925028;29;20098;-82
2022/03/18 00:02:26;;;;;;;21.98;11.68;;;;;;;4.62;74.39;102048.44;4925110;29;20031;-82
2022/03/18 00:04:52;;;;;;;20.75;9.05;;;;;;;4.83;74.01;102048.94;4925752;29;20054;-80
2022/03/18 00:07:22;;;;;;;17.50;12.65;;;;;;;4.51;74.64;102049.63;4925917;29;20031;-82
2022/03/18 00:09:48;;;;;;;24.38;12.13;;;;;;;4.66;74.61;102054.34;4925295;29;20044;-82
2022/03/18 00:12:14;;;;;;;27.00;13.75;;;;;;;4.33;75.59;102055.19;4922532;29;20039;-81
2022/03/18 00:14:52;;;;;;;25.23;11.88;;;;;;;4.54;74.85;102059.25;4922136;29;20490;-81
2022/03/18 00:17:17;;;;;;;21.60;10.43;;;;;;;4.72;74.02;102056.38;4926036;29;20034;-82
2022/03/18 00:19:42;;;;;;;25.30;11.90;;;;;;;4.72;73.99;102056.38;4907416;29;20353;-81
2022/03/18 00:22:08;;;;;;;19.48;9.65;;;;;;;4.52;74.11;102055.84;4924901;29;20270;-81
2022/03/18 00:24:34;;;;;;;20.42;9.75;;;;;;;4.38;74.62;102054.66;4924072;29;20542;-82
2022/03/18 00:27:01;;;;;;;21.00;10.65;;;;;;;4.34;74.02;102056.00;4908204;29;20028;-82
2022/03/18 00:29:27;;;;;;;21.05;10.25;;;;;;;4.48;74.34;102057.19;4923807;29;20791;-82
2022/03/18 00:31:53;;;;;;;24.73;9.95;;;;;;;4.50;74.11;102060.59;4924639;29;20080;-81
2022/03/18 00:34:18;;;;;;;19.42;8.95;;;;;;;4.62;74.21;102058.41;4926482;29;20367;-82
2022/03/18 00:36:44;;;;;;;24.77;9.38;;;;;;;4.60;74.36;102063.13;4944400;29;20478;-81
2022/03/18 00:39:10;;;;;;;18.60;10.48;;;;;;;4.40;74.53;102055.34;4943592;29;20164;-82
2022/03/18 00:41:35;;;;;;;22.65;8.90;;;;;;;4.44;74.12;102056.69;4920428;28;20334;-81
2022/03/18 00:44:00;;;;;;;15.70;7.90;;;;;;;4.55;74.47;102061.78;4909485;29;20048;-82
2022/03/18 00:46:25;;;;;;;23.73;7.80;;;;;;;4.69;72.99;102053.16;4911661;29;20042;-81
2022/03/18 00:54:20;;;;;;;19.20;7.85;;;;;;;4.30;74.26;102056.34;4924700;29;19922;-80
2022/03/18 00:56:45;;;;;;;14.77;7.72;;;;;;;4.40;73.62;102055.34;4924305;29;20494;-81
2022/03/18 00:59:10;;;;;;;15.98;6.20;;;;;;;4.31;74.78;102055.31;4923950;29;20028;-81
2022/03/18 01:01:36;;;;;;;13.15;5.88;;;;;;;4.31;75.21;102060.72;4917639;29;20036;-81
2022/03/18 01:04:02;;;;;;;13.65;6.13;;;;;;;4.34;74.86;102072.22;4924693;29;20142;-82
2022/03/18 01:06:27;;;;;;;11.48;6.68;;;;;;;4.28;74.20;102068.31;4924340;29;20048;-81
2022/03/18 01:08:53;;;;;;;12.07;6.13;;;;;;;4.41;74.04;102075.97;4923393;29;20372;-82
2022/03/18 01:11:18;;;;;;;18.23;6.53;;;;;;;4.46;73.51;102070.88;4916180;29;20937;-81
2022/03/18 01:13:43;;;;;;;11.20;4.78;;;;;;;4.27;73.97;102075.56;4911127;29;20350;-82
2022/03/18 01:16:09;;;;;;;14.50;6.53;;;;;;;4.17;74.82;102077.59;4904344;29;20052;-82
2022/03/18 01:18:34;;;;;;;12.98;6.53;;;;;;;4.27;74.79;102083.69;4906138;29;20039;-81
2022/03/18 01:21:00;;;;;;;10.38;5.07;;;;;;;4.35;73.85;102077.47;4905650;29;20107;-81
2022/03/18 01:23:25;;;;;;;16.53;6.20;;;;;;;4.30;73.89;102086.06;4924267;29;20067;-81
2022/03/18 01:25:50;;;;;;;12.65;6.97;;;;;;;4.50;73.47;102076.78;4922258;29;20761;-81
2022/03/18 01:28:16;;;;;;;19.15;8.07;;;;;;;4.27;72.85;102080.97;4923945;29;20031;-82
2022/03/18 01:30:41;;;;;;;16.90;7.20;;;;;;;4.09;74.87;102087.34;4923319;29;20078;-81
2022/03/18 01:33:07;;;;;;;15.32;6.80;;;;;;;4.11;75.66;102089.88;4922186;29;20035;-82
2022/03/18 01:35:32;;;;;;;20.73;7.25;;;;;;;4.16;76.31;102092.09;4916662;29;20047;-81
2022/03/18 01:37:57;;;;;;;11.85;6.38;;;;;;;4.24;75.99;102094.81;4923190;29;20050;-81
2022/03/18 01:40:22;;;;;;;18.23;8.55;;;;;;;3.88;77.46;102085.09;4918602;29;20024;-82
2022/03/18 01:42:49;;;;;;;13.38;7.82;;;;;;;3.94;76.89;102089.00;4919054;29;20118;-82
2022/03/18 01:45:14;;;;;;;15.82;7.20;;;;;;;4.07;75.87;102088.50;4923987;29;20502;-81
2022/03/18 01:47:43;;;;;;;21.25;9.80;;;;;;;4.01;75.09;102089.19;4923690;29;20039;-82
2022/03/18 01:50:10;;;;;;;16.83;9.68;;;;;;;3.91;75.42;102097.41;4922606;29;20330;-82
2022/03/18 01:52:49;;;;;;;21.27;9.43;;;;;;;3.63;76.40;102093.06;4923281;29;20440;-81
2022/03/18 01:55:15;;;;;;;15.65;7.90;;;;;;;3.72;76.21;102102.06;4923114;29;20705;-81
2022/03/18 01:57:43;;;;;;;14.88;7.53;;;;;;;3.81;76.01;102103.78;4923590;29;20054;-81
2022/03/18 02:00:09;;;;;;;18.15;8.23;;;;;;;3.87;76.00;102106.84;4923064;29;20035;-82
2022/03/18 02:02:34;;;;;;;41.35;10.38;;;;;;;3.87;75.62;102107.69;4923835;29;20034;-82
2022/03/18 02:04:59;;;;;;;16.05;8.85;;;;;;;3.94;75.95;102110.59;4924075;29;20596;-82
2022/03/18 02:07:24;;;;;;;20.13;10.35;;;;;;;3.91;75.76;102114.44;4923823;29;20058;-80
2022/03/18 02:09:50;;;;;;;23.48;9.73;;;;;;;3.92;74.68;102116.16;4923939;29;20411;-81
2022/03/18 02:12:15;;;;;;;19.25;10.02;;;;;;;3.85;74.80;102118.66;4922128;29;20434;-81
2022/03/18 02:14:43;;;;;;;21.92;10.20;;;;;;;3.93;75.43;102116.97;4906835;29;20641;-82
2022/03/18 02:17:10;;;;;;;26.05;11.60;;;;;;;3.96;74.64;102120.22;4923302;29;20028;-82
2022/03/18 02:19:36;;;;;;;17.05;11.20;;;;;;;3.76;75.37;102130.44;4923741;29;20028;-82
2022/03/18 02:22:09;;;;;;;26.20;14.02;;;;;;;3.64;75.57;102121.72;4923346;29;20082;-81
2022/03/18 02:24:35;;;;;;;20.67;11.55;;;;;;;3.77;75.59;102125.84;4923465;29;20035;-81
2022/03/18 02:27:00;;;;;;;23.17;11.90;;;;;;;3.56;75.99;102125.22;4923435;29;20095;-82
2022/03/18 02:29:25;;;;;;;20.30;12.77;;;;;;;3.54;76.26;102138.03;4923615;29;20707;-81
2022/03/18 02:31:51;;;;;;;18.38;9.75;;;;;;;3.75;75.41;102139.50;4923511;29;20054;-81
2022/03/18 02:34:16;;;;;;;24.15;10.77;;;;;;;3.85;75.04;102147.47;4922670;29;20175;-81
2022/03/18 02:36:42;;;;;;;20.17;10.90;;;;;;;3.79;75.32;102150.81;4937688;29;20130;-81
2022/03/18 02:39:07;;;;;;;23.92;13.50;;;;;;;3.77;75.49;102152.84;4940965;29;20027;-81
2022/03/18 02:41:33;;;;;;;34.92;14.18;;;;;;;3.76;75.45;102152.00;4929143;29;20063;-81
2022/03/18 02:43:59;;;;;;;27.83;13.57;;;;;;;3.61;75.79;102158.00;4923409;29;20406;-81
2022/03/18 02:46:24;;;;;;;21.55;12.00;;;;;;;3.57;75.70;102159.31;4923091;29;20031;-80
2022/03/18 02:48:50;;;;;;;23.38;13.02;;;;;;;3.58;75.92;102165.56;4923701;29;20107;-82
2022/03/18 02:51:15;;;;;;;22.33;12.68;;;;;;;3.59;76.00;102162.69;4922491;29;20599;-81
2022/03/18 02:53:41;;;;;;;20.45;10.20;;;;;;;3.67;76.06;102164.59;4906233;29;20031;-79
2022/03/18 02:56:07;;;;;;;21.23;11.03;;;;;;;3.49;75.82;102180.84;4923037;29;20435;-81
2022/03/18 02:58:47;;;;;;;25.83;11.13;;;;;;;3.55;75.72;102177.50;4923618;29;20302;-80
2022/03/18 03:01:12;;;;;;;21.80;11.15;;;;;;;3.55;75.82;102176.66;4922374;29;20071;-81
2022/03/18 03:03:38;;;;;;;16.50;7.13;;;;;;;3.56;75.96;102179.19;4922388;29;20738;-81
2022/03/18 03:08:47;;;;;;;22.85;10.98;;;;;;;4.03;75.11;102189.75;4925693;29;20555;-81
2022/03/18 03:11:13;;;;;;;23.20;10.43;;;;;;;3.67;75.41;102190.72;4925355;29;20114;-82
2022/03/18 03:13:38;;;;;;;25.52;11.57;;;;;;;3.39;76.25;102205.22;4925644;29;20066;-82
2022/03/18 03:16:04;;;;;;;27.02;12.55;;;;;;;3.61;75.37;102203.84;4925714;29;20910;-82
2022/03/18 03:18:29;;;;;;;21.15;10.77;;;;;;;3.47;76.23;102207.13;4926135;29;20467;-82
2022/03/18 03:20:55;;;;;;;19.67;10.15;;;;;;;3.34;76.47;102208.38;4925603;29;20107;-81
2022/03/18 03:23:23;;;;;;;25.67;11.35;;;;;;;3.44;76.63;102213.66;4926286;29;20352;-82
2022/03/18 03:25:49;;;;;;;19.17;9.60;;;;;;;3.41;76.66;102202.34;4908389;29;20085;-82
2022/03/18 03:28:17;;;;;;;22.08;9.23;;;;;;;3.55;75.87;102201.78;4926010;29;20529;-82
2022/03/18 03:30:42;;;;;;;35.42;11.13;;;;;;;3.66;75.10;102207.94;4924401;29;20034;-82
2022/03/18 03:33:08;;;;;;;22.63;11.43;;;;;;;3.65;75.15;102209.78;4926024;29;20028;-82
2022/03/18 03:35:33;;;;;;;25.15;12.15;;;;;;;3.38;76.33;102219.69;4930841;29;20055;-82
2022/03/18 03:37:58;;;;;;;23.83;11.63;;;;;;;3.57;77.09;102212.41;4944325;29;20430;-82
2022/03/18 03:40:24;;;;;;;20.85;9.77;;;;;;;3.62;75.61;102213.63;4940118;29;20596;-82
2022/03/18 03:42:49;;;;;;;26.65;10.02;;;;;;;3.70;75.23;102199.34;4924802;29;20703;-81
2022/03/18 03:45:15;;;;;;;21.25;10.27;;;;;;;3.55;76.54;102199.09;4940893;29;20031;-81
2022/03/18 03:47:41;;;;;;;25.58;11.23;;;;;;;3.53;76.43;102205.66;4925005;29;20123;-82
2022/03/18 03:50:08;;;;;;;23.10;13.07;;;;;;;3.62;76.66;102205.53;4924703;29;20076;-82
2022/03/18 03:52:37;;;;;;;26.35;9.15;;;;;;;3.74;75.97;102208.00;4924804;29;20035;-81
2022/03/18 03:55:04;;;;;;;14.98;7.32;;;;;;;3.70;76.74;102212.00;4923854;29;20466;-81
2022/03/18 03:57:29;;;;;;;10.52;5.10;;;;;;;3.81;75.43;102206.34;4925482;29;20493;-81
2022/03/18 03:59:54;;;;;;;11.52;5.68;;;;;;;4.09;74.49;102202.59;4925020;29;20040;-81
2022/03/18 04:02:20;;;;;;;12.80;6.65;;;;;;;4.38;73.53;102205.94;4926032;29;20043;-81
2022/03/18 04:04:47;;;;;;;13.32;4.70;;;;;;;4.43;73.59;102206.31;4924367;29;20091;-82
2022/03/18 04:07:12;;;;;;;10.45;4.32;;;;;;;4.35;73.74;102207.13;4925101;29;20028;-81
2022/03/18 04:09:37;;;;;;;11.05;4.53;;;;;;;4.30;73.77;102206.75;4924677;29;20510;-82
2022/03/18 04:12:03;;;;;;;22.27;6.40;;;;;;;4.61;72.38;102208.03;4916792;29;20039;-83
2022/03/18 04:14:28;;;;;;;13.52;4.68;;;;;;;4.89;71.60;102199.66;4924463;29;20062;-82
2022/03/18 04:16:53;;;;;;;8.48;4.13;;;;;;;4.78;71.42;102209.75;4924473;29;20028;-82
2022/03/18 04:19:19;;;;;;;15.00;4.97;;;;;;;4.82;71.29;102204.03;4924961;29;20028;-82
2022/03/18 04:21:44;;;;;;;12.50;4.63;;;;;;;4.82;71.32;102206.75;4931036;29;20285;-82
2022/03/18 04:24:11;;;;;;;10.60;4.45;;;;;;;4.62;72.37;102212.41;4943955;29;20166;-81
2022/03/18 04:26:36;;;;;;;13.85;4.22;;;;;;;4.57;73.01;102220.19;4942627;29;20577;-81
2022/03/18 04:29:02;;;;;;;17.98;4.85;;;;;;;4.88;72.44;102230.41;4926250;29;20031;-81
2022/03/18 04:31:27;;;;;;;11.20;3.58;;;;;;;4.54;72.79;102227.59;4942617;29;20023;-81
2022/03/18 04:33:52;;;;;;;13.00;4.03;;;;;;;4.62;72.92;102236.75;4942512;29;20046;-81
2022/03/18 04:36:18;;;;;;;9.73;4.38;;;;;;;4.73;71.98;102228.34;4925767;29;20032;-81
2022/03/18 04:38:43;;;;;;;32.35;5.95;;;;;;;5.00;71.11;102212.84;4923907;29;20682;-81
2022/03/18 04:41:08;;;;;;;10.98;4.38;;;;;;;4.82;71.61;102199.47;4906890;29;20565;-80
2022/03/18 04:43:33;;;;;;;15.57;6.53;;;;;;;4.90;71.05;102202.19;4924372;29;20072;-82
2022/03/18 04:45:59;;;;;;;9.37;4.47;;;;;;;4.18;73.47;102211.59;4924835;29;20437;-81
2022/03/18 04:51:45;;;;;;;8.98;3.60;;;;;;;4.43;72.47;102217.13;4921969;29;20177;-82
2022/03/18 04:54:11;;;;;;;12.25;5.30;;;;;;;4.55;71.75;102214.97;4924807;29;20613;-80
2022/03/18 04:59:20;;;;;;;10.32;5.22;;;;;;;4.36;73.49;102240.38;4924393;29;20397;-82
2022/03/18 05:01:47;;;;;;;8.57;3.70;;;;;;;4.22;73.28;102239.97;4923515;29;20035;-81
2022/03/18 05:04:12;;;;;;;10.02;4.65;;;;;;;4.29;72.61;102240.19;4923010;29;20253;-82
2022/03/18 05:06:39;;;;;;;20.42;6.28;;;;;;;4.41;72.61;102248.84;4923561;29;20027;-82
2022/03/18 05:09:04;;;;;;;12.93;6.28;;;;;;;4.23;73.13;102259.72;4905910;29;20036;-82
2022/03/18 05:11:29;;;;;;;13.27;5.82;;;;;;;4.08;73.33;102253.06;4923117;29;20086;-81
2022/03/18 05:13:55;;;;;;;13.65;7.30;;;;;;;4.10;73.48;102266.41;4923890;29;20028;-81
2022/03/18 05:16:20;;;;;;;13.95;5.32;;;;;;;3.93;73.37;102276.25;4924642;29;20036;-81
2022/03/18 05:18:46;;;;;;;13.27;7.03;;;;;;;3.75;74.09;102285.25;4922271;29;20474;-81
2022/03/18 05:21:11;;;;;;;16.60;6.23;;;;;;;3.63;74.75;102281.94;4923363;29;20058;-81
2022/03/18 05:23:37;;;;;;;17.88;7.68;;;;;;;3.67;75.10;102282.47;4924244;29;20792;-82
2022/03/18 05:26:03;;;;;;;16.55;7.00;;;;;;;3.84;74.72;102286.97;4922330;29;20019;-82
2022/03/18 05:28:29;;;;;;;16.98;7.60;;;;;;;3.91;74.60;102283.66;4923607;29;20098;-81
2022/03/18 05:30:55;;;;;;;16.90;7.80;;;;;;;3.76;74.65;102297.75;4922862;29;20035;-82
2022/03/18 05:33:20;;;;;;;14.60;7.97;;;;;;;3.52;74.79;102307.31;4923370;29;20024;-81
2022/03/18 05:35:45;;;;;;;13.43;6.85;;;;;;;3.47;76.12;102318.56;4930326;29;20129;-81
2022/03/18 05:38:11;;;;;;;13.90;5.80;;;;;;;3.37;76.62;102315.97;4925242;29;20035;-80
2022/03/18 05:40:36;;;;;;;14.15;6.07;;;;;;;3.22;75.80;102325.56;4937274;29;20039;-81
2022/03/18 05:43:02;;;;;;;28.20;10.10;;;;;;;3.11;77.38;102327.47;4924781;29;20603;-79
2022/03/18 05:45:27;;;;;;;18.85;8.95;;;;;;;3.23;76.80;102324.56;4925399;29;20024;-80
2022/03/18 05:47:53;;;;;;;13.45;7.25;;;;;;;3.27;76.63;102328.66;4907202;29;20402;-80
2022/03/18 05:50:19;;;;;;;15.68;8.27;;;;;;;3.30;75.41;102336.44;4925361;29;20027;-80
2022/03/18 05:56:52;;;;;;;19.47;10.33;;;;;;;3.31;75.11;102345.38;4924270;29;20115;-80
2022/03/18 05:58:16;;;;;;;18.10;7.78;;;;;;;3.45;74.73;102347.56;4925355;29;20087;-80
2022/03/18 06:00:45;;;;;;;18.73;8.13;;;;;;;3.24;74.85;102339.72;4924990;29;20235;-79
2022/03/18 06:03:12;;;;;;;18.40;8.63;;;;;;;3.09;76.70;102340.25;4925350;29;20031;-79
2022/03/18 06:05:39;;;;;;;15.63;8.60;;;;;;;2.91;76.85;102343.75;4924212;29;20565;-81
2022/03/18 06:13:52;;;;;;;16.05;8.70;;;;;;;3.21;76.60;102367.88;4865510;29;20105;-80
2022/03/18 06:16:17;;;;;;;15.80;8.52;;;;;;;3.23;76.36;102383.91;4866866;29;20025;-80
2022/03/18 06:18:42;;;;;;;19.05;10.35;;;;;;;3.25;76.62;102371.09;4881871;29;20040;-79
2022/03/18 06:21:08;;;;;;;20.80;10.65;;;;;;;3.44;75.39;102378.22;4907461;29;20047;-80
2022/03/18 06:23:34;;;;;;;16.73;8.63;;;;;;;3.37;75.17;102367.19;4925269;29;20110;-79
2022/03/18 06:26:01;;;;;;;14.25;8.50;;;;;;;3.25;76.41;102377.31;4924318;29;20115;-81
2022/03/18 06:28:27;;;;;;;17.58;8.57;;;;;;;3.30;76.66;102384.97;4925109;29;20054;-80
2022/03/18 06:30:52;;;;;;;14.27;8.27;;;;;;;3.57;75.35;102385.09;4923791;29;20475;-82
2022/03/18 06:33:17;;;;;;;27.77;9.15;;;;;;;3.36;76.22;102383.50;4925114;29;20446;-80
2022/03/18 06:35:43;;;;;;;14.73;7.33;;;;;;;3.22;77.63;102391.13;4936973;29;20587;-81
2022/03/18 06:38:08;;;;;;;22.35;9.98;;;;;;;3.25;77.87;102387.28;4945212;28;20273;-81
2022/03/18 06:40:47;;;;;;;15.98;6.55;;;;;;;3.36;77.56;102395.16;4941838;29;20038;-80
2022/03/18 06:43:12;;;;;;;14.88;8.10;;;;;;;3.46;77.59;102394.22;4928994;29;20028;-81
2022/03/18 06:45:37;;;;;;;14.73;7.47;;;;;;;3.57;77.33;102399.44;4925872;29;20103;-81
2022/03/18 06:48:03;;;;;;;25.88;10.88;;;;;;;3.79;75.70;102405.38;4925848;29;20702;-82
2022/03/18 06:50:29;;;;;;;21.50;10.50;;;;;;;3.82;75.72;102401.53;4926292;29;20066;-81
2022/03/18 06:52:54;;;;;;;18.13;8.60;;;;;;;3.82;76.07;102404.22;4926106;29;20028;-80
2022/03/18 06:55:19;;;;;;;23.95;9.70;;;;;;;3.75;77.00;102409.38;4924919;29;20554;-81
2022/03/18 06:57:45;;;;;;;16.52;8.50;;;;;;;3.87;76.51;102412.69;4926377;29;20016;-81
2022/03/18 07:00:10;;;;;;;17.40;8.65;;;;;;;3.98;76.17;102422.41;4925868;29;20031;-82
2022/03/18 07:02:36;;;;;;;20.08;11.48;;;;;;;4.09;75.50;102421.31;4925179;29;20042;-82
2022/03/18 07:05:01;;;;;;;25.50;12.23;;;;;;;4.24;75.03;102418.91;4925745;29;20031;-81
2022/03/18 07:07:26;;;;;;;23.00;10.45;;;;;;;4.26;74.90;102416.91;4926841;29;20035;-80
2022/03/18 07:09:52;;;;;;;28.47;11.00;;;;;;;4.26;75.15;102424.16;4927042;29;20152;-78
2022/03/18 07:12:17;;;;;;;20.25;8.88;;;;;;;4.58;73.69;102424.56;4927272;29;20689;-81
2022/03/18 07:14:42;;;;;;;21.92;8.82;;;;;;;4.66;73.43;102424.59;4925981;29;20082;-78
2022/03/18 07:19:52;;;;;;;21.45;11.80;;;;;;;4.58;73.87;102435.38;4908545;29;20047;-79
2022/03/18 07:22:18;;;;;;;25.70;12.77;;;;;;;4.58;74.01;102436.19;4927205;29;20035;-80
2022/03/18 07:24:43;;;;;;;32.50;13.13;;;;;;;4.67;73.52;102437.09;4927620;29;20031;-81
2022/03/18 07:27:09;;;;;;;20.70;11.25;;;;;;;4.41;74.49;102433.38;4926535;29;20112;-79
2022/03/18 07:29:35;;;;;;;17.38;9.38;;;;;;;4.63;73.59;102431.19;4927650;29;20479;-80
2022/03/18 07:32:00;;;;;;;18.33;10.60;;;;;;;4.70;73.60;102434.06;4926544;29;20669;-78
2022/03/18 07:34:25;;;;;;;26.48;12.95;;;;;;;4.86;73.10;102429.78;4908751;29;20130;-77
2022/03/18 07:36:51;;;;;;;24.42;12.63;;;;;;;4.77;73.50;102428.88;4927394;29;20337;-81
2022/03/18 07:39:17;;;;;;;27.83;12.55;;;;;;;4.69;74.04;102420.72;4926146;29;20059;-80
2022/03/18 07:41:42;;;;;;;20.45;10.40;;;;;;;4.90;73.40;102417.66;4925940;29;20261;-78
2022/03/18 07:44:08;;;;;;;19.60;8.75;;;;;;;4.99;73.40;102419.38;4924028;29;20024;-79
2022/03/18 07:46:33;;;;;;;17.15;9.60;;;;;;;4.95;73.95;102407.19;4925538;29;20039;-77
2022/03/18 07:49:12;;;;;;;23.98;11.50;;;;;;;5.21;72.44;102417.09;4907913;29;20562;-79
2022/03/18 07:51:38;;;;;;;34.15;10.07;;;;;;;5.58;71.53;102414.16;4924425;29;20040;-80
2022/03/18 07:54:03;;;;;;;23.85;9.57;;;;;;;5.13;73.00;102420.59;4925107;29;20126;-79
2022/03/18 07:56:29;;;;;;;16.60;8.80;;;;;;;5.42;72.21;102425.78;4924840;29;20409;-79
2022/03/18 07:58:55;;;;;;;24.98;10.18;;;;;;;5.57;71.45;102415.16;4923982;29;20054;-78
2022/03/18 08:01:20;;;;;;;17.55;9.18;;;;;;;5.53;71.25;102417.38;4924944;29;20032;-79
2022/03/18 08:03:45;;;;;;;15.35;8.35;;;;;;;5.72;71.18;102420.75;4924631;29;20040;-80
2022/03/18 08:06:10;;;;;;;19.70;9.68;;;;;;;5.80;71.03;102419.94;4923562;29;20156;-80
2022/03/18 08:08:36;;;;;;;19.37;10.13;;;;;;;5.84;69.54;102415.88;4906945;29;20023;-79
2022/03/18 08:11:01;;;;;;;12.75;7.70;;;;;;;5.95;69.03;102425.53;4922605;29;20278;-80
2022/03/18 08:13:27;;;;;;;15.60;7.75;;;;;;;5.96;68.25;102419.09;4923160;29;20050;-80
2022/03/18 08:15:52;;;;;;;16.60;8.43;;;;;;;6.07;68.15;102417.97;4922667;29;20487;-81
2022/03/18 08:18:19;;;;;;;18.60;8.13;;;;;;;6.19;67.80;102426.59;4906283;29;20107;-78
2022/03/18 08:20:48;;;;;;;16.00;8.40;;;;;;;6.38;67.60;102428.13;4923584;29;20127;-79
2022/03/18 08:23:14;;;;;;;16.67;7.72;;;;;;;6.35;67.89;102438.44;4923207;29;20767;-80
2022/03/18 08:25:40;;;;;;;15.80;8.48;;;;;;;6.45;67.80;102440.97;4924909;29;20032;-78
2022/03/18 08:28:07;;;;;;;17.08;8.10;;;;;;;6.48;67.15;102440.63;4907294;29;20039;-77
2022/03/18 08:30:32;;;;;;;20.30;8.13;;;;;;;6.42;68.54;102444.88;4924931;29;20028;-79
2022/03/18 08:32:58;;;;;;;19.17;7.90;;;;;;;6.47;67.50;102449.78;4923941;29;20649;-81
2022/03/18 08:35:23;;;;;;;12.35;8.20;;;;;;;6.63;67.72;102454.34;4934477;29;20035;-79
2022/03/18 08:37:57;;;;;;;12.45;7.38;;;;;;;6.70;67.48;102452.63;4927456;29;20119;-81
2022/03/18 08:40:34;;;;;;;23.08;7.35;;;;;;;6.69;67.29;102461.75;4929100;29;20338;-81
2022/03/18 08:43:01;;;;;;;14.43;6.55;;;;;;;6.81;67.18;102461.41;4919869;29;20058;-82
2022/03/18 08:45:28;;;;;;;16.90;6.78;;;;;;;6.72;67.08;102463.28;4921860;29;20035;-83
2022/03/18 08:47:54;;;;;;;20.45;8.43;;;;;;;6.80;67.39;102457.84;4920546;29;20032;-81
2022/03/18 08:50:21;;;;;;;18.52;6.88;;;;;;;6.94;67.14;102471.72;4923266;29;20557;-78
2022/03/18 08:52:47;;;;;;;10.93;5.70;;;;;;;6.90;67.42;102476.63;4923506;29;20028;-79
2022/03/18 08:57:57;;;;;;;12.13;6.03;;;;;;;6.98;67.09;102475.78;4921841;29;20039;-77
2022/03/18 09:00:23;;;;;;;10.70;5.85;;;;;;;7.16;66.63;102485.56;4905498;29;20522;-77
2022/03/18 09:02:49;;;;;;;14.02;7.15;;;;;;;7.21;66.37;102491.31;4922169;29;20032;-78
2022/03/18 09:05:14;;;;;;;10.00;6.78;;;;;;;7.26;66.29;102493.50;4922072;29;20356;-78
2022/03/18 09:07:40;;;;;;;8.13;4.40;;;;;;;7.38;66.00;102502.09;4922275;29;20372;-78
2022/03/18 09:10:07;;;;;;;9.57;4.05;;;;;;;7.27;63.51;102498.75;4922216;29;20024;-78
2022/03/18 09:12:33;;;;;;;7.03;3.10;;;;;;;7.49;63.49;102504.41;4921905;29;20020;-78
2022/03/18 09:14:58;;;;;;;7.35;2.72;;;;;;;7.52;62.97;102505.94;4921988;29;20043;-80
2022/03/18 09:17:24;;;;;;;10.50;3.40;;;;;;;7.44;63.06;102504.97;4923082;29;20070;-78
2022/03/18 09:19:50;;;;;;;10.07;3.22;;;;;;;7.59;63.56;102512.34;4921921;29;20070;-78
2022/03/18 09:22:16;;;;;;;12.38;4.38;;;;;;;7.80;62.58;102509.03;4921673;29;20402;-81
2022/03/18 09:24:42;;;;;;;6.63;2.80;;;;;;;7.73;61.92;102502.59;4922976;29;20030;-81
2022/03/18 09:27:09;;;;;;;7.47;2.50;;;;;;;7.88;62.18;102510.00;4922271;29;20046;-82
2022/03/18 09:29:36;;;;;;;9.30;3.80;;;;;;;8.02;62.33;102520.09;4923587;29;20028;-79
2022/03/18 09:32:02;;;;;;;8.85;3.00;;;;;;;7.99;61.79;102525.06;4922784;29;20027;-81
2022/03/18 09:34:27;;;;;;;6.82;4.72;;;;;;;8.11;61.66;102525.47;4926233;29;20402;-81
2022/03/18 09:36:54;;;;;;;9.40;5.53;;;;;;;8.17;62.02;102522.91;4942331;29;20027;-81
2022/03/18 09:39:20;;;;;;;5.97;2.63;;;;;;;8.24;62.16;102520.28;4942326;29;20424;-81
2022/03/18 09:41:45;;;;;;;9.57;3.72;;;;;;;8.22;63.40;102526.91;4926033;29;20038;-81
2022/03/18 09:44:10;;;;;;;15.60;3.88;;;;;;;8.36;62.46;102536.19;4923052;29;20498;-82
2022/03/18 09:46:37;;;;;;;11.13;4.18;;;;;;;8.26;60.16;102539.97;4921303;29;20036;-82
2022/03/18 09:49:06;;;;;;;4.72;2.17;;;;;;;8.27;59.20;102541.69;4921003;29;20038;-78
2022/03/18 09:51:32;;;;;;;8.93;2.20;;;;;;;8.43;57.89;102539.84;4920509;29;20385;-80
2022/03/18 09:53:59;;;;;;;5.60;3.75;;;;;;;8.70;58.50;102545.78;4919054;29;20047;-80
2022/03/18 09:56:24;;;;;;;4.40;1.88;;;;;;;8.60;58.30;102545.19;4922454;29;20057;-78
2022/03/18 09:58:50;;;;;;;5.30;2.22;;;;;;;8.74;58.56;102552.56;4922673;29;20040;-78
2022/03/18 10:01:16;;;;;;;5.20;1.92;;;;;;;8.93;57.95;102550.31;4924387;29;20036;-80
2022/03/18 10:03:42;;;;;;;4.07;2.13;;;;;;;8.84;57.73;102549.56;4910202;29;20521;-77
2022/03/18 10:06:11;;;;;;;5.45;2.08;;;;;;;8.93;58.46;102554.94;4921763;29;20040;-78
2022/03/18 10:08:39;;;;;;;9.18;2.42;;;;;;;9.10;57.62;102550.16;4921127;29;20028;-78
2022/03/18 10:11:16;;;;;;;7.10;1.80;;;;;;;9.21;56.88;102557.03;4920737;29;20050;-77
2022/03/18 10:13:51;;;;;;;9.13;1.70;;;;;;;9.31;57.24;102557.59;4923611;29;20044;-80
2022/03/18 10:16:36;;;;;;;4.68;1.38;;;;;;;9.32;55.66;102552.97;4925598;29;20381;-79
2022/03/18 10:19:06;;;;;;;2.85;0.90;;;;;;;9.18;53.62;102557.38;4925714;29;20491;-80
2022/03/18 10:21:32;;;;;;;7.97;3.15;;;;;;;9.37;54.48;102550.56;4924105;29;20429;-78
2022/03/18 10:27:20;;;;;;;4.82;1.83;;;;;;;9.60;54.17;102540.59;4923573;29;20094;-78
2022/03/18 10:29:49;;;;;;;2.58;1.17;;;;;;;9.69;54.74;102537.56;4926328;29;20040;-79
2022/03/18 10:32:17;;;;;;;2.60;1.30;;;;;;;9.49;53.21;102555.53;4925230;29;20542;-80
2022/03/18 10:37:44;;;;;;;4.22;1.45;;;;;;;9.77;53.17;102549.38;4942090;29;20050;-78
2022/03/18 10:40:11;;;;;;;3.63;1.70;;;;;;;9.72;53.08;102547.25;4925212;29;20150;-79
2022/03/18 10:42:37;;;;;;;7.15;1.30;;;;;;;9.96;53.26;102541.63;4925477;29;20028;-78
2022/03/18 10:45:03;;;;;;;5.38;1.58;;;;;;;9.97;52.99;102549.59;4925504;29;20422;-78
2022/03/18 10:47:41;;;;;;;6.68;1.48;;;;;;;9.81;53.13;102545.22;4925654;29;20059;-79
2022/03/18 10:50:10;;;;;;;4.80;1.10;;;;;;;10.18;52.72;102538.91;4924235;29;20372;-80
2022/03/18 10:52:36;;;;;;;3.47;1.60;;;;;;;10.20;53.00;102545.03;4924260;29;20038;-78
2022/03/18 10:55:25;;;;;;;8.25;2.15;;;;;;;10.16;52.70;102537.25;4924376;29;20190;-79
2022/03/18 11:00:43;;;;;;;5.95;1.80;;;;;;;10.23;50.88;102547.38;4912955;29;20055;-78
2022/03/18 11:03:09;;;;;;;4.45;2.03;;;;;;;10.40;51.93;102547.94;4903866;29;20494;-79
2022/03/18 11:05:37;;;;;;;8.40;2.42;;;;;;;10.36;53.04;102555.69;4906367;29;20039;-79
2022/03/18 11:08:05;;;;;;;4.78;1.40;;;;;;;10.54;52.00;102564.47;4911174;29;20031;-79
2022/03/18 11:13:17;;;;;;;4.63;1.70;;;;;;;10.68;50.90;102552.63;4918642;29;20650;-79
2022/03/18 11:15:45;;;;;;;4.40;1.67;;;;;;;10.68;50.28;102554.53;4924956;29;20055;-78
2022/03/18 11:18:13;;;;;;;5.32;1.85;;;;;;;10.86;51.06;102559.50;4925694;29;20034;-79
2022/03/18 11:20:42;;;;;;;5.72;2.10;;;;;;;10.85;51.42;102561.38;4923888;29;20694;-78
2022/03/18 11:23:14;;;;;;;5.55;1.90;;;;;;;10.92;51.17;102553.22;4924996;29;20131;-78
2022/03/18 11:25:41;;;;;;;5.18;1.83;;;;;;;10.76;49.88;102554.38;4924064;29;20119;-77
2022/03/18 11:28:07;;;;;;;5.88;2.50;;;;;;;10.94;50.05;102558.50;4925553;29;20028;-79
2022/03/18 11:30:37;;;;;;;7.32;2.72;;;;;;;10.96;49.69;102554.53;4913695;29;20147;-79
2022/03/18 11:33:06;;;;;;;8.20;2.38;;;;;;;11.13;49.24;102561.56;4924790;29;20039;-79
2022/03/18 11:35:49;;;;;;;4.85;2.35;;;;;;;11.29;49.95;102557.66;4933935;29;20110;-79
2022/03/18 11:38:30;;;;;;;7.00;3.08;;;;;;;11.40;51.04;102567.19;4936089;29;20066;-79
2022/03/18 11:40:58;;;;;;;4.60;2.28;;;;;;;11.54;49.92;102558.03;4924189;29;20035;-79
2022/03/18 11:46:25;;;;;;;6.38;3.30;;;;;;;11.41;51.14;102566.16;4904371;29;20051;-79
2022/03/18 11:48:57;;;;;;;7.38;1.83;;;;;;;11.47;51.49;102559.88;4903784;29;20070;-82
2022/03/18 11:51:37;;;;;;;6.25;3.22;;;;;;;11.56;50.75;102555.09;4915668;29;20641;-81
2022/03/18 11:54:05;;;;;;;4.97;2.38;;;;;;;11.51;48.19;102547.50;4923741;29;20043;-80
2022/03/18 11:56:47;;;;;;;5.65;2.40;;;;;;;11.83;48.61;102554.34;4924029;29;20047;-78
2022/03/18 11:59:25;;;;;;;13.40;3.17;;;;;;;11.96;49.06;102548.91;4922366;29;20298;-79
2022/03/18 12:02:17;;;;;;;10.40;3.25;;;;;;;11.91;49.39;102535.03;4923492;29;20110;-79
2022/03/18 12:04:50;;;;;;;6.75;3.25;;;;;;;12.00;48.79;102539.25;4924197;29;20031;-78